createdAt,value
2019-06-27T00:01:58.789Z,5.57
2019-06-27T00:04:27.445Z,5.70
2019-06-27T00:06:55.358Z,5.23
2019-06-27T00:09:23.977Z,5.50
2019-06-27T00:11:51.993Z,5.90
2019-06-27T00:14:20.177Z,5.53
2019-06-27T00:16:47.843Z,5.40
2019-06-27T00:19:16.057Z,5.20
2019-06-27T00:21:44.221Z,5.33
2019-06-27T00:24:11.897Z,5.23
2019-06-27T00:26:55.855Z,5.23
2019-06-27T00:29:09.709Z,5.63
2019-06-27T00:31:37.361Z,6.00
2019-06-27T00:34:06.023Z,5.80
2019-06-27T00:36:34.197Z,5.30
2019-06-27T00:39:02.555Z,5.30
2019-06-27T00:41:30.745Z,5.37
2019-06-27T00:43:58.698Z,4.90
2019-06-27T00:46:26.363Z,5.07
2019-06-27T00:48:54.450Z,5.00
2019-06-27T00:51:22.536Z,4.83
2019-06-27T00:53:50.625Z,5.03
2019-06-27T00:56:18.609Z,4.80
2019-06-27T00:58:46.365Z,5.10
2019-06-27T01:01:14.305Z,5.00
2019-06-27T01:03:41.942Z,5.00
2019-06-27T01:06:10.512Z,5.10
2019-06-27T01:08:38.181Z,5.30
2019-06-27T01:11:06.145Z,5.40
2019-06-27T01:13:34.040Z,5.57
2019-06-27T01:16:01.736Z,4.90
2019-06-27T01:18:29.429Z,5.43
2019-06-27T01:20:57.205Z,5.10
2019-06-27T01:23:24.838Z,4.90
2019-06-27T01:25:53.104Z,5.50
2019-06-27T01:28:20.745Z,5.60
2019-06-27T01:30:48.733Z,5.20
2019-06-27T01:33:17.073Z,5.13
2019-06-27T01:35:45.178Z,5.50
2019-06-27T01:38:13.141Z,5.67
2019-06-27T01:40:40.785Z,5.50
2019-06-27T01:43:08.705Z,5.37
2019-06-27T01:45:42.347Z,5.40
2019-06-27T01:48:10.929Z,5.80
2019-06-27T01:50:38.590Z,5.83
2019-06-27T01:53:06.255Z,5.33
2019-06-27T01:55:34.025Z,5.73
2019-06-27T01:58:01.940Z,5.23
2019-06-27T02:00:29.889Z,4.90
2019-06-27T02:02:57.853Z,5.13
2019-06-27T02:05:26.210Z,5.03
2019-06-27T02:07:53.887Z,4.60
2019-06-27T02:10:21.646Z,4.83
2019-06-27T02:12:49.370Z,4.30
2019-06-27T02:15:17.482Z,4.70
2019-06-27T02:17:45.485Z,4.60
2019-06-27T02:20:13.430Z,4.47
2019-06-27T02:22:41.093Z,4.67
2019-06-27T02:25:09.194Z,4.60
2019-06-27T02:27:37.187Z,4.30
2019-06-27T02:30:05.257Z,4.50
2019-06-27T02:32:33.338Z,4.20
2019-06-27T02:35:01.298Z,4.40
2019-06-27T02:37:28.945Z,4.17
2019-06-27T02:39:57.225Z,4.20
2019-06-27T02:42:24.903Z,4.23
2019-06-27T02:44:52.821Z,3.80
2019-06-27T02:47:21.094Z,4.20
2019-06-27T02:49:50.513Z,3.93
2019-06-27T02:52:18.936Z,4.03
2019-06-27T02:54:46.910Z,3.80
2019-06-27T02:57:14.574Z,4.50
2019-06-27T02:59:43.040Z,4.07
2019-06-27T03:02:11.367Z,3.90
2019-06-27T03:04:39.682Z,3.73
2019-06-27T03:07:07.617Z,3.47
2019-06-27T03:09:35.624Z,3.50
2019-06-27T03:12:03.533Z,3.73
2019-06-27T03:14:32.187Z,3.70
2019-06-27T03:17:00.106Z,3.60
2019-06-27T03:19:27.820Z,3.43
2019-06-27T03:21:56.288Z,3.40
2019-06-27T03:24:24.343Z,3.50
2019-06-27T03:26:51.987Z,3.50
2019-06-27T03:29:20.538Z,3.57
2019-06-27T03:31:48.839Z,3.63
2019-06-27T03:34:16.747Z,3.67
2019-06-27T03:36:44.785Z,3.60
2019-06-27T03:39:13.099Z,3.83
2019-06-27T03:41:41.691Z,3.53
2019-06-27T03:44:09.849Z,3.40
2019-06-27T03:46:38.215Z,3.50
2019-06-27T03:49:06.425Z,3.60
2019-06-27T03:51:34.421Z,3.80
2019-06-27T03:54:02.443Z,4.20
2019-06-27T03:56:30.535Z,4.00
2019-06-27T03:59:11.502Z,4.53
2019-06-27T04:01:28.617Z,4.63
2019-06-27T04:03:57.001Z,4.17
2019-06-27T04:06:24.939Z,4.70
2019-06-27T04:08:52.857Z,4.60
2019-06-27T04:11:20.746Z,4.67
2019-06-27T04:13:48.642Z,3.90
2019-06-27T04:16:16.898Z,4.50
2019-06-27T04:18:44.866Z,4.83
2019-06-27T04:21:13.107Z,4.60
2019-06-27T04:23:41.342Z,5.90
2019-06-27T04:26:09.547Z,4.87
2019-06-27T04:28:38.123Z,5.67
2019-06-27T04:31:06.164Z,5.40
2019-06-27T04:33:33.815Z,4.63
2019-06-27T04:36:01.781Z,5.10
2019-06-27T04:38:30.106Z,5.47
2019-06-27T04:40:57.999Z,5.30
2019-06-27T04:43:25.677Z,5.27
2019-06-27T04:45:53.338Z,5.60
2019-06-27T04:48:21.329Z,5.50
2019-06-27T04:50:49.648Z,5.60
2019-06-27T04:53:17.577Z,5.40
2019-06-27T04:55:45.212Z,5.50
2019-06-27T04:58:13.161Z,5.90
2019-06-27T05:00:41.133Z,5.67
2019-06-27T05:03:09.485Z,6.13
2019-06-27T05:05:37.822Z,5.40
2019-06-27T05:08:06.287Z,5.77
2019-06-27T05:10:34.210Z,5.20
2019-06-27T05:13:01.870Z,5.23
2019-06-27T05:15:29.873Z,6.00
2019-06-27T05:17:57.885Z,5.23
2019-06-27T05:20:26.293Z,5.43
2019-06-27T05:22:54.319Z,5.17
2019-06-27T05:25:21.989Z,5.20
2019-06-27T05:27:50.318Z,5.50
2019-06-27T05:30:17.968Z,5.97
2019-06-27T05:32:46.185Z,5.93
2019-06-27T05:35:14.423Z,5.43
2019-06-27T05:37:42.089Z,6.77
2019-06-27T05:40:10.328Z,6.27
2019-06-27T05:42:38.521Z,7.07
2019-06-27T05:45:06.706Z,7.03
2019-06-27T05:47:35.186Z,7.20
2019-06-27T05:50:02.878Z,6.90
2019-06-27T05:52:31.134Z,6.20
2019-06-27T05:54:59.036Z,5.80
2019-06-27T05:57:27.432Z,6.33
2019-06-27T05:59:55.415Z,5.80
2019-06-27T06:02:23.439Z,6.40
2019-06-27T06:05:00.204Z,5.70
2019-06-27T06:07:27.977Z,5.43
2019-06-27T06:09:55.777Z,5.97
2019-06-27T06:12:23.945Z,5.90
2019-06-27T06:14:52.274Z,5.50
2019-06-27T06:17:21.569Z,5.57
2019-06-27T06:19:49.272Z,5.17
2019-06-27T06:22:17.237Z,5.97
2019-06-27T06:24:45.165Z,5.50
2019-06-27T06:27:13.459Z,6.23
2019-06-27T06:29:41.867Z,5.60
2019-06-27T06:32:09.861Z,6.23
2019-06-27T06:34:38.008Z,5.37
2019-06-27T06:37:08.177Z,5.20
2019-06-27T06:39:36.002Z,5.27
2019-06-27T06:42:04.471Z,5.07
2019-06-27T06:44:35.031Z,5.63
2019-06-27T06:47:04.060Z,5.23
2019-06-27T06:49:33.310Z,5.73
2019-06-27T06:52:00.993Z,5.63
2019-06-27T06:54:29.246Z,6.00
2019-06-27T06:56:57.332Z,5.80
2019-06-27T06:59:25.808Z,5.50
2019-06-27T07:01:54.011Z,5.60
2019-06-27T07:04:21.901Z,5.40
2019-06-27T07:06:49.999Z,5.80
2019-06-27T07:09:17.778Z,5.27
2019-06-27T07:11:45.708Z,6.10
2019-06-27T07:14:14.081Z,5.73
2019-06-27T07:16:41.778Z,5.10
2019-06-27T07:19:09.452Z,5.60
2019-06-27T07:21:37.681Z,5.70
2019-06-27T07:24:05.665Z,5.67
2019-06-27T07:26:33.344Z,5.33
2019-06-27T07:29:01.976Z,5.97
2019-06-27T07:31:30.165Z,4.73
2019-06-27T07:33:58.086Z,4.33
2019-06-27T07:36:25.818Z,5.37
2019-06-27T07:38:53.462Z,4.40
2019-06-27T07:41:21.631Z,4.73
2019-06-27T07:43:49.281Z,5.33
2019-06-27T07:46:25.232Z,5.33
2019-06-27T07:48:47.221Z,4.63
2019-06-27T07:51:14.850Z,4.20
2019-06-27T07:53:43.048Z,4.20
2019-06-27T07:56:11.286Z,3.33
2019-06-27T07:58:39.573Z,3.93
2019-06-27T08:01:07.261Z,4.00
2019-06-27T08:03:35.967Z,3.83
2019-06-27T08:06:04.116Z,4.00
2019-06-27T08:08:32.074Z,4.00
2019-06-27T08:11:00.110Z,4.10
2019-06-27T08:13:29.584Z,3.60
2019-06-27T08:16:04.048Z,3.50
2019-06-27T08:18:40.605Z,3.50
2019-06-27T08:21:22.985Z,3.70
2019-06-27T08:23:54.759Z,3.63
2019-06-27T08:26:25.252Z,3.50
2019-06-27T08:28:55.937Z,3.27
2019-06-27T08:31:24.233Z,3.53
2019-06-27T08:33:52.221Z,3.77
2019-06-27T08:36:19.865Z,4.37
2019-06-27T08:38:48.668Z,3.37
2019-06-27T08:41:16.550Z,4.07
2019-06-27T08:43:44.308Z,3.67
2019-06-27T08:46:12.524Z,3.70
2019-06-27T08:48:40.478Z,3.13
2019-06-27T08:51:08.144Z,5.10
2019-06-27T08:53:36.326Z,3.10
2019-06-27T08:56:04.538Z,2.93
2019-06-27T08:58:32.180Z,3.00
2019-06-27T09:01:00.178Z,3.07
2019-06-27T09:03:28.344Z,3.27
2019-06-27T09:05:56.365Z,3.10
2019-06-27T09:08:24.442Z,3.20
2019-06-27T09:10:52.772Z,3.13
2019-06-27T09:13:21.264Z,3.07
2019-06-27T09:15:51.173Z,2.93
2019-06-27T09:18:18.809Z,2.97
2019-06-27T09:20:47.371Z,3.10
2019-06-27T09:23:15.584Z,2.53
2019-06-27T09:25:43.868Z,2.50
2019-06-27T09:28:11.943Z,2.50
2019-06-27T09:30:40.216Z,2.77
2019-06-27T09:33:08.356Z,2.53
2019-06-27T09:35:36.085Z,2.73
2019-06-27T09:38:04.121Z,2.30
2019-06-27T09:40:31.854Z,2.53
2019-06-27T09:43:00.050Z,2.73
2019-06-27T09:45:28.222Z,2.40
2019-06-27T09:47:56.306Z,2.47
2019-06-27T09:50:23.944Z,2.00
2019-06-27T09:52:51.573Z,2.70
2019-06-27T09:55:19.209Z,2.67
2019-06-27T09:57:47.196Z,2.50
2019-06-27T10:00:15.602Z,2.20
2019-06-27T10:02:44.097Z,2.53
2019-06-27T10:05:12.521Z,3.17
2019-06-27T10:07:40.765Z,2.63
2019-06-27T10:10:08.713Z,2.50
2019-06-27T10:12:42.150Z,2.40
2019-06-27T10:15:06.073Z,2.50
2019-06-27T10:17:34.064Z,2.93
2019-06-27T10:20:02.360Z,2.50
2019-06-27T10:22:30.002Z,2.42
2019-06-27T10:24:57.949Z,2.20
2019-06-27T10:27:26.249Z,2.73
2019-06-27T10:29:54.534Z,2.30
2019-06-27T10:32:22.460Z,2.57
2019-06-27T10:34:50.441Z,2.10
2019-06-27T10:37:18.345Z,2.30
2019-06-27T10:39:46.550Z,1.90
2019-06-27T10:42:14.761Z,2.20
2019-06-27T10:44:42.664Z,1.90
2019-06-27T10:47:10.679Z,2.03
2019-06-27T10:49:41.304Z,1.60
2019-06-27T10:52:09.264Z,1.67
2019-06-27T10:54:37.207Z,2.10
2019-06-27T10:57:04.900Z,2.60
2019-06-27T10:59:32.828Z,2.30
2019-06-27T11:02:01.322Z,2.00
2019-06-27T11:04:28.981Z,2.00
2019-06-27T11:06:57.040Z,2.20
2019-06-27T11:09:25.130Z,2.13
2019-06-27T11:11:53.125Z,2.33
2019-06-27T11:14:21.119Z,2.50
2019-06-27T11:16:49.053Z,2.53
2019-06-27T11:19:17.073Z,2.70
2019-06-27T11:21:45.691Z,2.40
2019-06-27T11:24:13.825Z,2.57
2019-06-27T11:26:42.250Z,2.80
2019-06-27T11:29:09.905Z,2.50
2019-06-27T11:31:37.529Z,2.40
2019-06-27T11:34:05.204Z,2.30
2019-06-27T11:36:33.120Z,2.70
2019-06-27T11:39:01.025Z,1.93
2019-06-27T11:41:29.188Z,2.47
2019-06-27T11:43:57.131Z,2.10
2019-06-27T11:46:24.786Z,2.40
2019-06-27T11:48:53.002Z,2.13
2019-06-27T11:51:20.703Z,2.00
2019-06-27T11:53:48.433Z,2.10
2019-06-27T11:56:16.080Z,2.40
2019-06-27T11:58:43.720Z,2.13
2019-06-27T12:01:11.362Z,2.07
2019-06-27T12:03:49.321Z,2.23
2019-06-27T12:06:08.888Z,2.30
2019-06-27T12:08:36.786Z,2.70
2019-06-27T12:11:04.468Z,3.20
2019-06-27T12:13:32.729Z,2.50
2019-06-27T12:16:00.441Z,2.50
2019-06-27T12:18:28.438Z,2.50
2019-06-27T12:20:56.734Z,2.50
2019-06-27T12:23:24.942Z,2.40
2019-06-27T12:28:33.059Z,2.57
2019-06-27T12:31:01.010Z,2.90
2019-06-27T12:33:28.916Z,2.70
2019-06-27T12:35:57.070Z,4.50
2019-06-27T12:38:24.709Z,2.80
2019-06-27T12:40:52.824Z,2.83
2019-06-27T12:43:21.123Z,2.60
2019-06-27T12:45:48.977Z,2.67
2019-06-27T12:48:16.700Z,3.27
2019-06-27T12:50:44.695Z,3.20
2019-06-27T12:53:12.699Z,3.00
2019-06-27T12:55:40.565Z,3.20
2019-06-27T12:58:08.509Z,3.00
2019-06-27T13:00:36.947Z,3.20
2019-06-27T13:03:04.990Z,2.80
2019-06-27T13:05:32.645Z,2.53
2019-06-27T13:08:00.778Z,3.20
2019-06-27T13:10:35.669Z,2.83
2019-06-27T13:13:03.851Z,3.10
2019-06-27T13:15:32.237Z,2.80
2019-06-27T13:18:00.528Z,2.90
2019-06-27T13:20:28.160Z,2.50
2019-06-27T13:22:55.905Z,2.90
2019-06-27T13:25:23.641Z,2.77
2019-06-27T13:27:51.858Z,2.60
2019-06-27T13:30:19.853Z,2.67
2019-06-27T13:32:48.164Z,2.67
2019-06-27T13:35:16.092Z,2.80
2019-06-27T13:37:44.595Z,2.83
2019-06-27T13:40:12.723Z,2.30
2019-06-27T13:42:40.421Z,2.20
2019-06-27T13:45:08.607Z,2.63
2019-06-27T13:47:37.168Z,2.60
2019-06-27T13:50:05.227Z,2.87
2019-06-27T13:52:33.471Z,2.60
2019-06-27T13:55:01.153Z,2.47
2019-06-27T13:57:29.537Z,2.10
2019-06-27T13:59:57.197Z,2.80
2019-06-27T14:02:25.205Z,2.30
2019-06-27T14:04:57.598Z,2.30
2019-06-27T14:07:23.414Z,2.27
2019-06-27T14:09:56.895Z,2.20
2019-06-27T14:12:21.085Z,2.30
2019-06-27T14:14:59.389Z,2.00
2019-06-27T14:17:19.252Z,2.10
2019-06-27T14:19:49.886Z,2.20
2019-06-27T14:22:29.223Z,2.40
2019-06-27T14:24:46.333Z,2.20
2019-06-27T14:27:14.406Z,2.57
2019-06-27T14:29:42.052Z,2.57
2019-06-27T14:32:09.997Z,2.60
2019-06-27T14:34:37.926Z,2.70
2019-06-27T14:37:05.934Z,2.40
2019-06-27T14:39:33.556Z,2.43
2019-06-27T14:42:01.239Z,2.27
2019-06-27T14:44:29.241Z,2.70
2019-06-27T14:46:56.942Z,2.50
2019-06-27T14:49:25.461Z,2.30
2019-06-27T14:51:53.277Z,2.17
2019-06-27T14:54:21.483Z,2.80
2019-06-27T14:56:50.612Z,2.50
2019-06-27T14:59:21.669Z,2.77
2019-06-27T15:01:49.916Z,2.60
2019-06-27T15:04:18.496Z,2.70
2019-06-27T15:06:46.834Z,3.10
2019-06-27T15:09:14.796Z,2.93
2019-06-27T15:11:42.477Z,2.43
2019-06-27T15:14:10.482Z,2.80
2019-06-27T15:16:38.117Z,2.70
2019-06-27T15:19:06.106Z,3.13
2019-06-27T15:21:34.129Z,3.30
2019-06-27T15:24:02.279Z,2.80
2019-06-27T15:26:30.804Z,3.00
2019-06-27T15:28:58.437Z,3.17
2019-06-27T15:31:26.408Z,3.43
2019-06-27T15:33:54.025Z,2.77
2019-06-27T15:36:22.262Z,3.00
2019-06-27T15:38:50.178Z,2.70
2019-06-27T15:41:18.453Z,3.03
2019-06-27T15:43:46.479Z,2.80
2019-06-27T15:46:14.449Z,3.03
2019-06-27T15:48:42.458Z,3.00
2019-06-27T15:51:11.099Z,3.13
2019-06-27T15:53:39.164Z,3.27
2019-06-27T15:56:06.898Z,3.10
2019-06-27T15:58:34.537Z,3.60
2019-06-27T16:01:02.498Z,2.90
2019-06-27T16:03:30.133Z,3.17
2019-06-27T16:06:08.596Z,3.70
2019-06-27T16:08:27.441Z,3.37
2019-06-27T16:10:55.777Z,3.70
2019-06-27T16:13:24.263Z,3.00
2019-06-27T16:15:52.793Z,3.50
2019-06-27T16:18:21.130Z,3.57
2019-06-27T16:20:49.148Z,3.23
2019-06-27T16:23:16.893Z,3.50
2019-06-27T16:25:45.447Z,3.50
2019-06-27T16:28:13.713Z,3.63
2019-06-27T16:30:41.981Z,3.87
2019-06-27T16:33:09.905Z,3.77
2019-06-27T16:35:37.696Z,3.60
2019-06-27T16:38:05.989Z,3.77
2019-06-27T16:40:34.012Z,3.90
2019-06-27T16:43:02.001Z,3.80
2019-06-27T16:45:29.638Z,3.97
2019-06-27T16:47:57.316Z,4.00
2019-06-27T16:50:25.458Z,4.20
2019-06-27T16:52:53.422Z,4.40
2019-06-27T16:55:21.683Z,4.10
2019-06-27T16:57:49.321Z,4.20
2019-06-27T17:00:17.728Z,3.83
2019-06-27T17:02:45.880Z,4.63
2019-06-27T17:05:13.703Z,4.40
2019-06-27T17:07:41.910Z,4.50
2019-06-27T17:10:10.221Z,4.33
2019-06-27T17:12:38.265Z,4.53
2019-06-27T17:15:05.950Z,4.50
2019-06-27T17:17:33.591Z,4.27
2019-06-27T17:20:01.778Z,5.60
2019-06-27T17:22:29.421Z,4.90
2019-06-27T17:24:57.084Z,4.93
2019-06-27T17:27:25.517Z,5.10
2019-06-27T17:29:53.860Z,4.53
2019-06-27T17:32:22.108Z,4.10
2019-06-27T17:34:49.837Z,4.47
2019-06-27T17:37:18.900Z,4.10
2019-06-27T17:39:46.708Z,3.77
2019-06-27T17:42:17.834Z,3.80
2019-06-27T17:44:45.532Z,3.90
2019-06-27T17:47:13.486Z,3.63
2019-06-27T17:49:41.198Z,3.50
2019-06-27T17:52:08.980Z,3.53
2019-06-27T17:54:37.333Z,3.27
2019-06-27T17:57:05.320Z,3.40
2019-06-27T17:59:33.737Z,4.03
2019-06-27T18:02:01.718Z,3.57
2019-06-27T18:04:29.699Z,3.70
2019-06-27T18:07:12.563Z,3.10
2019-06-27T18:09:27.396Z,3.13
2019-06-27T18:11:55.715Z,3.43
2019-06-27T18:14:23.585Z,3.43
2019-06-27T18:16:51.328Z,3.30
2019-06-27T18:19:19.903Z,3.10
2019-06-27T18:21:47.650Z,3.20
2019-06-27T18:24:15.626Z,3.33
2019-06-27T18:26:43.421Z,3.20
2019-06-27T18:29:11.564Z,3.50
2019-06-27T18:31:39.288Z,3.20
2019-06-27T18:34:07.265Z,2.90
2019-06-27T18:36:35.224Z,3.00
2019-06-27T18:39:03.545Z,3.20
2019-06-27T18:41:31.184Z,2.80
2019-06-27T18:43:58.835Z,3.53
2019-06-27T18:46:26.962Z,2.83
2019-06-27T18:48:54.668Z,3.03
2019-06-27T18:51:22.841Z,3.03
2019-06-27T18:53:50.886Z,3.00
2019-06-27T18:56:18.594Z,2.70
2019-06-27T18:58:46.791Z,3.10
2019-06-27T19:01:14.539Z,2.93
2019-06-27T19:03:42.218Z,3.20
2019-06-27T19:06:10.106Z,2.40
2019-06-27T19:08:37.848Z,2.90
2019-06-27T19:11:05.856Z,2.90
2019-06-27T19:13:34.205Z,2.80
2019-06-27T19:16:02.232Z,3.30
2019-06-27T19:18:47.815Z,2.67
2019-06-27T19:21:21.269Z,3.07
2019-06-27T19:23:55.776Z,2.90
2019-06-27T19:26:23.697Z,2.60
2019-06-27T19:28:51.706Z,2.63
2019-06-27T19:31:19.856Z,3.03
2019-06-27T19:33:47.737Z,2.83
2019-06-27T19:36:15.920Z,2.80
2019-06-27T19:38:44.360Z,2.63
2019-06-27T19:41:12.085Z,3.10
2019-06-27T19:43:40.492Z,2.87
2019-06-27T19:46:08.158Z,2.60
2019-06-27T19:48:36.127Z,2.70
2019-06-27T19:51:04.753Z,2.77
2019-06-27T19:53:32.510Z,2.63
2019-06-27T19:56:00.549Z,2.80
2019-06-27T19:58:28.779Z,3.17
2019-06-27T20:00:56.530Z,3.10
2019-06-27T20:03:25.004Z,2.87
2019-06-27T20:05:53.061Z,2.80
2019-06-27T20:08:20.762Z,2.97
2019-06-27T20:10:49.057Z,2.80
2019-06-27T20:13:17.024Z,2.83
2019-06-27T20:15:45.145Z,2.60
2019-06-27T20:18:13.254Z,2.70
2019-06-27T20:20:41.022Z,3.40
2019-06-27T20:23:09.520Z,3.00
2019-06-27T20:25:38.770Z,2.97
2019-06-27T20:28:07.172Z,2.60
2019-06-27T20:30:34.876Z,2.60
2019-06-27T20:33:02.700Z,2.87
2019-06-27T20:35:30.953Z,2.90
2019-06-27T20:37:59.250Z,2.50
2019-06-27T20:40:28.431Z,3.00
2019-06-27T20:42:56.054Z,2.83
2019-06-27T20:45:24.289Z,3.00
2019-06-27T20:47:52.292Z,2.90
2019-06-27T20:50:20.645Z,2.73
2019-06-27T20:52:48.912Z,2.73
2019-06-27T20:55:16.934Z,3.00
2019-06-27T20:57:44.908Z,2.53
2019-06-27T21:00:12.648Z,3.07
2019-06-27T21:02:40.589Z,2.90
2019-06-27T21:05:09.140Z,2.73
2019-06-27T21:07:37.356Z,2.60
2019-06-27T21:10:05.412Z,3.00
2019-06-27T21:12:33.597Z,2.80
2019-06-27T21:15:02.090Z,2.50
2019-06-27T21:17:29.741Z,2.60
2019-06-27T21:19:58.325Z,2.93
2019-06-27T21:22:26.529Z,2.67
2019-06-27T21:24:54.798Z,2.50
2019-06-27T21:27:23.593Z,2.60
2019-06-27T21:29:51.328Z,2.77
2019-06-27T21:32:30.923Z,2.50
2019-06-27T21:34:49.545Z,2.77
2019-06-27T21:37:17.523Z,2.70
2019-06-27T21:39:45.228Z,2.77
2019-06-27T21:42:13.225Z,3.00
2019-06-27T21:44:41.110Z,2.70
2019-06-27T21:47:09.673Z,2.63
2019-06-27T21:49:37.657Z,2.67
2019-06-27T21:52:06.080Z,3.00
2019-06-27T21:54:33.734Z,2.70
2019-06-27T21:57:01.721Z,3.10
2019-06-27T21:59:29.624Z,3.17
2019-06-27T22:01:57.300Z,2.80
2019-06-27T22:04:25.492Z,2.90
2019-06-27T22:06:53.795Z,3.07
2019-06-27T22:09:25.156Z,3.17
2019-06-27T22:11:51.405Z,3.00
2019-06-27T22:14:19.426Z,2.80
2019-06-27T22:16:47.748Z,2.60
2019-06-27T22:19:15.692Z,2.83
2019-06-27T22:21:43.617Z,2.80
2019-06-27T22:24:11.341Z,2.90
2019-06-27T22:26:39.068Z,2.73
2019-06-27T22:29:06.966Z,2.93
2019-06-27T22:31:35.403Z,3.30
2019-06-27T22:34:03.252Z,3.13
2019-06-27T22:36:31.557Z,3.23
2019-06-27T22:39:17.142Z,3.33
2019-06-27T22:42:02.771Z,2.80
2019-06-27T22:44:48.795Z,2.80
2019-06-27T22:47:34.753Z,3.13
2019-06-27T22:50:09.176Z,3.00
2019-06-27T22:53:08.613Z,2.80
2019-06-27T22:55:36.616Z,2.83
2019-06-27T22:58:04.530Z,2.87
2019-06-27T23:00:32.721Z,3.50
2019-06-27T23:03:00.390Z,2.90
2019-06-27T23:05:28.405Z,3.00
2019-06-27T23:07:56.141Z,2.90
2019-06-27T23:10:24.152Z,3.10
2019-06-27T23:12:51.793Z,2.90
2019-06-27T23:15:19.749Z,2.77
2019-06-27T23:17:48.051Z,2.90
2019-06-27T23:20:16.213Z,2.77
2019-06-27T23:22:43.848Z,2.80
2019-06-27T23:25:11.786Z,2.90
2019-06-27T23:27:40.129Z,2.77
2019-06-27T23:30:10.952Z,2.80
2019-06-27T23:32:39.268Z,2.90
2019-06-27T23:35:07.023Z,3.00
2019-06-27T23:37:34.770Z,2.57
2019-06-27T23:40:13.394Z,2.97
2019-06-27T23:42:32.373Z,2.90
2019-06-27T23:45:00.316Z,2.80
2019-06-27T23:47:28.326Z,2.70
2019-06-27T23:49:56.309Z,2.77
2019-06-27T23:52:24.611Z,3.10
2019-06-27T23:54:53.025Z,3.00
2019-06-27T23:57:20.926Z,2.77
2019-06-27T23:59:48.928Z,3.10
